createdAt,value
2019-05-02T00:02:34.722Z,55.07
2019-05-02T00:07:39.073Z,53.10
2019-05-02T00:12:44.788Z,54.73
2019-05-02T00:17:49.076Z,53.90
2019-05-02T00:22:53.475Z,56.53
2019-05-02T00:27:57.689Z,56.10
2019-05-02T00:33:02.234Z,54.00
2019-05-02T00:38:06.597Z,55.33
2019-05-02T00:43:10.558Z,57.33
2019-05-02T00:48:19.287Z,55.97
2019-05-02T00:53:22.303Z,54.53
2019-05-02T00:58:27.145Z,54.67
2019-05-02T01:03:34.803Z,53.77
2019-05-02T01:08:39.098Z,54.93
2019-05-02T01:13:43.305Z,52.10
2019-05-02T01:18:47.265Z,54.10
2019-05-02T01:23:51.470Z,56.37
2019-05-02T01:29:03.114Z,54.00
2019-05-02T01:34:25.367Z,54.93
2019-05-02T01:39:29.899Z,54.50
2019-05-02T01:44:36.234Z,55.70
2019-05-02T01:49:40.674Z,53.77
2019-05-02T01:54:45.675Z,54.73
2019-05-02T01:59:51.249Z,55.70
2019-05-02T02:04:56.895Z,56.70
2019-05-02T02:10:01.499Z,58.40
2019-05-02T02:15:06.216Z,56.13
2019-05-02T02:20:14.156Z,59.53
2019-05-02T02:25:26.876Z,58.67
2019-05-02T02:30:31.331Z,61.67
2019-05-02T02:35:36.816Z,57.53
2019-05-02T02:40:41.268Z,59.20
2019-05-02T02:46:05.416Z,59.27
2019-05-02T02:51:09.715Z,58.40
2019-05-02T02:56:14.276Z,58.03
2019-05-02T03:01:27.347Z,55.33
2019-05-02T03:06:24.872Z,59.25
2019-05-02T03:11:34.716Z,57.63
2019-05-02T03:16:46.795Z,58.00
2019-05-02T03:22:01.175Z,57.07
2019-05-02T03:27:01.150Z,57.07
2019-05-02T03:32:16.030Z,58.23
2019-05-02T03:37:13.924Z,59.73
2019-05-02T03:42:18.585Z,60.27
2019-05-02T03:47:22.874Z,57.23
2019-05-02T03:52:27.446Z,59.03
2019-05-02T03:57:33.381Z,61.50
2019-05-02T04:02:37.725Z,60.87
2019-05-02T04:07:42.405Z,59.43
2019-05-02T04:12:53.282Z,61.10
2019-05-02T04:17:52.781Z,61.13
2019-05-02T04:22:57.391Z,61.23
2019-05-02T04:28:05.803Z,61.53
2019-05-02T04:33:08.566Z,60.40
2019-05-02T04:38:20.045Z,59.33
2019-05-02T04:43:19.426Z,62.10
2019-05-02T04:48:23.814Z,62.37
2019-05-02T04:53:38.662Z,59.03
2019-05-02T04:58:37.173Z,62.80
2019-05-02T05:03:40.207Z,62.93
2019-05-02T05:08:44.435Z,66.47
2019-05-02T05:13:52.397Z,64.80
2019-05-02T05:18:54.569Z,65.70
2019-05-02T05:24:01.547Z,66.53
2019-05-02T05:29:08.116Z,66.77
2019-05-02T05:34:12.106Z,64.87
2019-05-02T05:39:17.640Z,66.53
2019-05-02T05:44:23.298Z,64.77
2019-05-02T05:49:28.247Z,66.47
2019-05-02T05:54:33.164Z,64.90
2019-05-02T05:59:38.384Z,63.17
2019-05-02T06:04:42.614Z,62.40
2019-05-02T06:09:46.752Z,62.23
2019-05-02T06:14:50.957Z,65.83
2019-05-02T06:19:55.466Z,62.47
2019-05-02T06:25:01.379Z,65.73
2019-05-02T06:30:09.326Z,66.27
2019-05-02T06:35:17.070Z,66.47
2019-05-02T06:40:19.225Z,65.50
2019-05-02T06:45:23.709Z,64.47
2019-05-02T06:50:28.010Z,64.07
2019-05-02T06:55:36.312Z,62.33
2019-05-02T07:00:56.085Z,58.23
2019-05-02T07:05:44.162Z,58.33
2019-05-02T07:10:48.706Z,56.47
2019-05-02T07:16:00.639Z,56.27
2019-05-02T07:21:05.818Z,56.50
2019-05-02T07:26:10.419Z,55.27
2019-05-02T07:31:14.389Z,52.23
2019-05-02T07:36:18.614Z,48.87
2019-05-02T07:41:24.204Z,46.67
2019-05-02T07:46:29.527Z,48.73
2019-05-02T07:51:34.304Z,47.23
2019-05-02T07:56:40.242Z,45.40
2019-05-02T08:01:49.362Z,43.20
2019-05-02T08:06:50.882Z,42.43
2019-05-02T08:11:55.193Z,44.03
2019-05-02T08:17:05.805Z,45.20
2019-05-02T08:22:13.248Z,44.53
2019-05-02T08:27:19.034Z,43.53
2019-05-02T08:32:23.629Z,42.57
2019-05-02T08:37:27.657Z,44.20
2019-05-02T08:42:32.669Z,41.07
2019-05-02T08:47:37.126Z,41.43
2019-05-02T08:52:42.559Z,42.57
2019-05-02T08:57:47.430Z,41.80
2019-05-02T09:02:51.637Z,40.57
2019-05-02T09:07:55.613Z,43.10
2019-05-02T09:12:59.818Z,42.83
2019-05-02T09:18:04.374Z,42.67
2019-05-02T09:23:08.365Z,42.43
2019-05-02T09:28:12.694Z,44.00
2019-05-02T09:33:18.410Z,39.63
2019-05-02T09:38:22.318Z,38.47
2019-05-02T09:43:29.354Z,37.70
2019-05-02T09:48:32.165Z,39.67
2019-05-02T09:53:36.381Z,38.90
2019-05-02T09:58:42.065Z,41.03
2019-05-02T10:03:46.704Z,41.13
2019-05-02T10:08:52.044Z,40.60
2019-05-02T10:13:56.601Z,40.63
2019-05-02T10:19:09.106Z,41.93
2019-05-02T10:24:06.637Z,37.97
2019-05-02T10:29:12.775Z,40.27
2019-05-02T10:34:17.835Z,38.53
2019-05-02T10:39:23.414Z,39.93
2019-05-02T10:44:32.653Z,38.73
2019-05-02T10:49:38.742Z,39.10
2019-05-02T10:54:43.398Z,39.35
2019-05-02T10:59:47.582Z,40.47
2019-05-02T11:04:59.161Z,38.33
2019-05-02T11:10:14.824Z,36.93
2019-05-02T11:15:26.722Z,37.60
2019-05-02T11:20:31.887Z,36.47
2019-05-02T11:25:36.277Z,35.17
2019-05-02T11:30:41.996Z,37.53
2019-05-02T11:35:49.089Z,36.90
2019-05-02T11:40:53.230Z,36.47
2019-05-02T11:46:05.574Z,32.40
2019-05-02T11:51:07.342Z,33.50
2019-05-02T11:56:10.995Z,33.73
2019-05-02T12:01:14.726Z,34.27
2019-05-02T12:06:19.703Z,33.43
2019-05-02T12:11:23.855Z,33.40
2019-05-02T12:16:28.366Z,28.70
2019-05-02T12:21:32.904Z,32.67
2019-05-02T12:26:36.942Z,26.37
2019-05-02T12:31:42.518Z,25.67
2019-05-02T12:36:46.942Z,29.63
2019-05-02T12:41:53.228Z,25.27
2019-05-02T12:46:56.813Z,24.67
2019-05-02T12:52:01.779Z,24.77
2019-05-02T12:57:06.230Z,24.90
2019-05-02T13:02:12.427Z,20.40
2019-05-02T13:07:16.737Z,16.70
2019-05-02T13:12:22.852Z,18.13
2019-05-02T13:17:29.295Z,14.73
2019-05-02T13:22:34.315Z,17.57
2019-05-02T13:27:46.132Z,16.17
2019-05-02T13:32:48.142Z,17.10
2019-05-02T13:37:54.033Z,16.77
2019-05-02T13:42:58.400Z,16.50
2019-05-02T13:48:02.776Z,15.53
2019-05-02T13:53:08.224Z,17.40
2019-05-02T13:58:12.197Z,16.77
2019-05-02T14:03:16.733Z,16.03
2019-05-02T14:08:36.887Z,14.97
2019-05-02T14:13:39.625Z,16.57
2019-05-02T14:18:43.851Z,13.10
2019-05-02T14:23:48.469Z,12.57
2019-05-02T14:28:53.254Z,12.77
2019-05-02T14:34:15.247Z,13.70
2019-05-02T14:39:19.145Z,14.03
2019-05-02T14:44:27.008Z,14.87
2019-05-02T14:49:29.805Z,14.87
2019-05-02T14:54:38.124Z,15.73
2019-05-02T14:59:39.940Z,15.77
2019-05-02T15:04:48.687Z,16.73
2019-05-02T15:09:52.387Z,16.03
2019-05-02T15:14:58.690Z,16.47
2019-05-02T15:20:02.863Z,16.33
2019-05-02T15:25:13.638Z,16.60
2019-05-02T15:30:16.005Z,16.50
2019-05-02T15:35:26.997Z,15.80
2019-05-02T15:45:36.606Z,16.90
2019-05-02T15:50:50.213Z,17.10
2019-05-02T15:55:50.027Z,22.97
2019-05-02T16:01:12.046Z,24.90
2019-05-02T16:06:21.843Z,23.63
2019-05-02T16:11:23.111Z,25.60
2019-05-02T16:16:27.535Z,26.60
2019-05-02T16:21:39.194Z,25.77
2019-05-02T16:26:46.760Z,29.63
2019-05-02T16:31:54.929Z,35.77
2019-05-02T16:37:07.057Z,40.77
2019-05-02T16:42:09.542Z,42.70
2019-05-02T16:47:14.090Z,44.60
2019-05-02T16:52:18.802Z,43.43
2019-05-02T16:57:23.828Z,36.20
2019-05-02T17:02:27.964Z,34.70
2019-05-02T17:07:34.820Z,35.50
2019-05-02T17:12:39.609Z,32.87
2019-05-02T17:17:43.823Z,31.83
2019-05-02T17:22:50.365Z,30.73
2019-05-02T17:28:01.083Z,29.70
2019-05-02T17:32:59.273Z,27.03
2019-05-02T17:38:04.541Z,26.13
2019-05-02T17:43:08.774Z,24.73
2019-05-02T17:48:16.419Z,24.47
2019-05-02T17:53:18.496Z,23.97
2019-05-02T17:58:22.969Z,24.07
2019-05-02T18:03:30.948Z,22.73
2019-05-02T18:08:33.549Z,23.00
2019-05-02T18:13:37.781Z,22.70
2019-05-02T18:18:45.447Z,23.23
2019-05-02T18:23:47.693Z,24.50
2019-05-02T18:28:52.659Z,24.83
2019-05-02T18:33:57.173Z,24.07
2019-05-02T18:39:05.099Z,23.60
2019-05-02T18:44:08.941Z,23.23
2019-05-02T18:49:17.098Z,23.90
2019-05-02T18:54:18.849Z,23.37
2019-05-02T18:59:27.046Z,22.73
2019-05-02T19:04:36.600Z,22.57
2019-05-02T19:09:48.186Z,22.10
2019-05-02T19:14:42.127Z,20.47
2019-05-02T19:19:46.382Z,21.97
2019-05-02T19:24:52.368Z,21.90
2019-05-02T19:29:56.746Z,21.87
2019-05-02T19:35:03.259Z,21.70
2019-05-02T19:40:10.254Z,23.53
2019-05-02T19:45:16.901Z,23.57
2019-05-02T19:50:40.300Z,25.17
2019-05-02T19:55:37.970Z,25.33
2019-05-02T20:00:46.162Z,25.73
2019-05-02T20:05:48.539Z,26.17
2019-05-02T20:10:58.326Z,25.80
2019-05-02T20:16:11.789Z,28.87
2019-05-02T20:21:23.227Z,28.33
2019-05-02T20:26:23.498Z,30.80
2019-05-02T20:31:27.876Z,30.80
2019-05-02T20:36:32.537Z,31.47
2019-05-02T20:41:37.095Z,31.43
2019-05-02T20:46:42.140Z,31.17
2019-05-02T20:51:46.759Z,30.97
2019-05-02T20:56:53.742Z,29.57
2019-05-02T21:01:57.717Z,31.83
2019-05-02T21:07:06.842Z,31.10
2019-05-02T21:12:12.618Z,33.57
2019-05-02T21:17:17.139Z,32.17
2019-05-02T21:22:24.686Z,31.70
2019-05-02T21:27:28.994Z,28.73
2019-05-02T21:32:33.559Z,22.53
2019-05-02T21:37:37.926Z,19.17
2019-05-02T21:42:42.669Z,21.03
2019-05-02T21:47:46.934Z,25.20
2019-05-02T21:52:55.879Z,30.67
2019-05-02T21:57:59.917Z,31.70
2019-05-02T22:03:04.400Z,28.67
2019-05-02T22:08:08.335Z,28.13
2019-05-02T22:13:12.553Z,24.40
2019-05-02T22:18:19.388Z,19.93
2019-05-02T22:23:23.827Z,13.57
2019-05-02T22:28:28.382Z,12.17
2019-05-02T22:33:32.830Z,11.43
2019-05-02T22:38:44.466Z,11.87
2019-05-02T22:43:48.597Z,11.97
2019-05-02T22:48:52.722Z,13.63
2019-05-02T22:53:56.954Z,12.50
2019-05-02T22:59:02.190Z,11.60
2019-05-02T23:04:06.914Z,11.40
2019-05-02T23:09:12.701Z,11.07
2019-05-02T23:14:17.177Z,10.87
2019-05-02T23:19:23.019Z,10.73
2019-05-02T23:24:42.615Z,10.60
2019-05-02T23:29:47.238Z,10.53
2019-05-02T23:34:52.295Z,10.67
2019-05-02T23:39:56.361Z,10.50
2019-05-02T23:45:00.243Z,10.43
2019-05-02T23:50:04.802Z,10.13
2019-05-02T23:55:09.177Z,10.77
